Time;durP1;ratioP1;P1;durP2;ratioP2;P2;SDS_P1;SDS_P2;PMS_P1;PMS_P2;Temp;Humidity;BMP_temperature;BMP_pressure;BME280_temperature;BME280_humidity;BME280_pressure;Samples;Min_cycle;Max_cycle;Signal;HPM_P1;HPM_P2
2022/01/16 00:00:47;;;;;;;;;;;;;;;3.84;47.89;100715.94;5026112;28;19917;-85
2022/01/16 00:05:57;;;;;;;;;;;;;;;3.91;47.88;100734.44;5006362;28;19924;-86
2022/01/16 00:08:23;;;;;;;;;;;;;;;3.78;47.74;100721.84;5006585;28;19976;-85
2022/01/16 00:10:48;;;;;;;;;;;;;;;3.95;47.62;100724.94;5021211;28;19944;-85
2022/01/16 00:13:14;;;;;;;;;;;;;;;3.83;47.84;100720.28;5026622;28;20368;-86
2022/01/16 00:15:39;;;;;;;;;;;;;;;3.95;47.81;100735.38;5021433;28;19920;-85
2022/01/16 00:20:30;;;;;;;;;;;;;;;4.04;48.20;100761.75;5021276;28;19913;-84
2022/01/16 00:22:56;;;;;;;;;;;;;;;3.82;48.19;100775.06;5026597;28;19921;-85
2022/01/16 00:25:22;;;;;;;;;;;;;;;3.79;48.03;100793.22;5026531;28;20402;-85
2022/01/16 00:27:47;;;;;;;;;;;;;;;3.82;48.19;100801.16;5025094;28;19913;-85
2022/01/16 00:30:13;;;;;;;;;;;;;;;3.78;48.79;100815.81;5011971;28;20363;-84
2022/01/16 00:32:39;;;;;;;;;;;;;;;3.69;49.36;100845.16;5006731;28;19933;-84
2022/01/16 00:35:05;;;;;;;;;;;;;;;3.54;50.12;100866.41;5041618;28;20308;-85
2022/01/16 00:37:30;;;;;;;;;;;;;;;3.42;49.72;100839.06;5025072;28;19913;-84
2022/01/16 00:39:56;;;;;;;;;;;;;;;3.46;49.48;100781.81;5013752;28;20418;-88
2022/01/16 00:42:21;;;;;;;;;;;;;;;3.39;49.94;100738.97;5006612;28;19976;-84
2022/01/16 00:44:46;;;;;;;;;;;;;;;3.41;49.93;100676.41;5006851;28;20364;-84
2022/01/16 00:47:12;;;;;;;;;;;;;;;3.30;50.00;100613.50;5007553;28;20433;-84
2022/01/16 00:49:39;;;;;;;;;;;;;;;3.25;49.59;100598.56;5011104;28;20449;-85
2022/01/16 00:52:08;;;;;;;;;;;;;;;3.28;49.09;100596.94;5006196;28;20383;-85
2022/01/16 00:54:33;;;;;;;;;;;;;;;3.32;49.64;100610.94;5020733;28;19917;-84
2022/01/16 00:56:59;;;;;;;;;;;;;;;3.25;49.64;100615.09;5026198;28;20044;-84
2022/01/16 00:59:24;;;;;;;;;;;;;;;3.25;49.49;100609.88;5019234;28;20368;-85
2022/01/16 01:01:50;;;;;;;;;;;;;;;3.32;49.20;100644.84;5006052;28;19917;-84
2022/01/16 01:04:15;;;;;;;;;;;;;;;3.40;49.54;100685.97;5006535;28;19917;-85
2022/01/16 01:06:41;;;;;;;;;;;;;;;3.35;49.47;100710.13;5022743;28;19968;-85
2022/01/16 01:09:06;;;;;;;;;;;;;;;3.34;48.66;100731.88;5021705;28;19917;-84
2022/01/16 01:11:32;;;;;;;;;;;;;;;3.42;48.66;100727.75;5006793;28;20400;-84
2022/01/16 01:16:27;;;;;;;;;;;;;;;3.42;49.39;100724.28;5006227;28;19913;-86
2022/01/16 01:18:53;;;;;;;;;;;;;;;3.31;49.47;100722.22;5006538;28;19921;-85
2022/01/16 01:21:28;;;;;;;;;;;;;;;3.37;49.59;100714.56;5006049;28;19913;-85
2022/01/16 01:23:54;;;;;;;;;;;;;;;3.34;49.11;100724.91;5018281;28;20724;-85
2022/01/16 01:26:25;;;;;;;;;;;;;;;3.39;48.81;100727.66;5024648;28;20303;-85
2022/01/16 01:28:50;;;;;;;;;;;;;;;3.32;49.34;100742.25;5024290;28;20346;-86
2022/01/16 01:31:15;;;;;;;;;;;;;;;3.35;48.72;100744.94;5005915;28;19925;-84
2022/01/16 01:33:41;;;;;;;;;;;;;;;3.37;48.88;100756.31;5009453;28;19913;-85
2022/01/16 01:36:06;;;;;;;;;;;;;;;3.30;49.45;100754.34;5029712;28;20383;-85
2022/01/16 01:38:31;;;;;;;;;;;;;;;3.59;48.58;100750.00;5029029;28;20430;-84
2022/01/16 01:40:57;;;;;;;;;;;;;;;3.57;49.12;100758.66;5027348;28;19974;-85
2022/01/16 01:51:21;;;;;;;;;;;;;;;3.09;50.32;100754.56;5023611;28;19916;-85
2022/01/16 01:53:46;;;;;;;;;;;;;;;3.12;50.53;100765.09;5009927;28;19913;-84
2022/01/16 01:56:13;;;;;;;;;;;;;;;3.03;50.71;100781.31;5019738;28;19916;-84
2022/01/16 01:58:38;;;;;;;;;;;;;;;3.06;50.09;100772.72;5029188;28;19955;-84
2022/01/16 02:01:04;;;;;;;;;;;;;;;3.05;50.05;100774.41;5027241;28;20379;-85
2022/01/16 02:05:57;;;;;;;;;;;;;;;3.02;50.25;100776.91;5017108;28;19960;-85
2022/01/16 02:08:23;;;;;;;;;;;;;;;2.95;50.13;100790.59;5029059;28;19955;-85
2022/01/16 02:10:49;;;;;;;;;;;;;;;3.01;49.72;100785.59;5028194;28;19945;-84
2022/01/16 02:13:25;;;;;;;;;;;;;;;3.08;49.19;100791.00;5026343;28;20394;-84
2022/01/16 02:31:46;;;;;;;;;;;;;;;3.03;49.57;100775.22;5022614;28;19921;-85
2022/01/16 02:36:59;;;;;;;;;;;;;;;2.97;48.90;100769.78;5008441;28;20309;-85
2022/01/16 02:39:28;;;;;;;;;;;;;;;2.81;49.73;100768.38;5008813;28;19917;-85
2022/01/16 02:41:56;;;;;;;;;;;;;;;2.82;49.44;100764.94;5008663;28;19914;-85
2022/01/16 02:44:32;;;;;;;;;;;;;;;2.90;49.65;100767.81;5009668;28;19921;-85
2022/01/16 02:46:58;;;;;;;;;;;;;;;2.86;49.33;100765.09;5008581;28;20013;-84
2022/01/16 02:49:24;;;;;;;;;;;;;;;3.00;49.44;100764.69;5013914;28;20551;-84
2022/01/16 02:51:50;;;;;;;;;;;;;;;3.02;49.44;100758.66;5026452;28;19924;-85
2022/01/16 02:54:16;;;;;;;;;;;;;;;2.94;49.74;100754.06;5028106;28;19923;-85
2022/01/16 02:56:43;;;;;;;;;;;;;;;2.91;49.62;100762.66;5026628;28;19913;-84
2022/01/16 02:59:12;;;;;;;;;;;;;;;2.93;49.56;100757.50;5028598;28;20409;-85
2022/01/16 03:01:38;;;;;;;;;;;;;;;2.77;50.28;100762.19;5027745;28;19913;-85
2022/01/16 03:04:03;;;;;;;;;;;;;;;2.67;50.63;100750.59;5027772;28;19920;-85
2022/01/16 03:06:28;;;;;;;;;;;;;;;2.74;50.53;100743.84;5026835;28;19913;-85
2022/01/16 03:08:54;;;;;;;;;;;;;;;2.67;50.26;100747.97;5028226;28;19940;-85
2022/01/16 03:13:53;;;;;;;;;;;;;;;2.46;51.18;100745.50;5021745;28;19913;-85
2022/01/16 03:16:21;;;;;;;;;;;;;;;2.49;50.30;100756.03;5013566;28;19924;-85
2022/01/16 03:24:14;;;;;;;;;;;;;;;2.38;50.61;100746.06;5026354;28;19923;-84
2022/01/16 03:26:40;;;;;;;;;;;;;;;2.51;50.00;100753.50;5010231;28;19913;-84
2022/01/16 03:29:05;;;;;;;;;;;;;;;2.54;50.03;100770.94;5007465;28;19925;-85
2022/01/16 03:31:30;;;;;;;;;;;;;;;2.78;49.93;100769.19;5007572;28;19914;-85
2022/01/16 03:33:56;;;;;;;;;;;;;;;2.55;50.46;100770.09;5007444;28;19928;-85
2022/01/16 03:36:21;;;;;;;;;;;;;;;2.79;49.85;100780.47;5013226;28;19919;-85
2022/01/16 03:38:47;;;;;;;;;;;;;;;2.69;50.60;100782.78;5026375;28;19909;-85
2022/01/16 03:41:12;;;;;;;;;;;;;;;2.57;50.42;100782.34;5016288;28;19998;-85
2022/01/16 03:43:38;;;;;;;;;;;;;;;2.60;50.83;100785.06;5017143;28;20295;-86
2022/01/16 03:46:03;;;;;;;;;;;;;;;2.29;52.01;100781.38;5010138;28;20018;-84
2022/01/16 03:48:29;;;;;;;;;;;;;;;2.36;51.66;100792.88;5025653;28;20004;-85
2022/01/16 03:50:54;;;;;;;;;;;;;;;2.19;52.17;100797.50;5026031;28;19913;-85
2022/01/16 03:53:19;;;;;;;;;;;;;;;2.11;52.64;100799.81;5006922;28;20522;-85
2022/01/16 03:55:44;;;;;;;;;;;;;;;1.95;53.27;100798.38;5018692;28;20522;-85
2022/01/16 03:58:10;;;;;;;;;;;;;;;2.00;53.17;100814.16;5022411;28;20000;-85
2022/01/16 04:00:35;;;;;;;;;;;;;;;2.15;52.67;100806.03;5007052;28;19913;-84
2022/01/16 04:03:00;;;;;;;;;;;;;;;2.04;52.68;100818.66;5012714;28;19917;-86
2022/01/16 04:05:26;;;;;;;;;;;;;;;2.04;52.91;100822.94;5026074;28;19921;-86
2022/01/16 04:07:51;;;;;;;;;;;;;;;2.08;52.55;100815.31;5009505;28;19909;-85
2022/01/16 04:10:16;;;;;;;;;;;;;;;2.19;52.57;100827.84;5037430;28;20402;-86
2022/01/16 04:12:44;;;;;;;;;;;;;;;2.20;52.56;100825.31;5006972;28;19932;-86
2022/01/16 04:17:38;;;;;;;;;;;;;;;1.95;53.31;100827.00;5007533;28;19917;-87
2022/01/16 04:20:04;;;;;;;;;;;;;;;1.69;53.62;100831.19;5006805;28;20450;-87
2022/01/16 04:22:29;;;;;;;;;;;;;;;1.83;53.49;100823.91;5023978;28;19924;-86
2022/01/16 04:24:54;;;;;;;;;;;;;;;1.68;53.89;100823.31;5026447;28;19913;-88
2022/01/16 04:27:20;;;;;;;;;;;;;;;1.74;54.02;100837.44;5012200;28;19972;-88
2022/01/16 04:29:45;;;;;;;;;;;;;;;1.67;53.67;100826.75;5005744;28;20359;-87
2022/01/16 04:32:10;;;;;;;;;;;;;;;1.77;53.28;100834.09;5008482;28;19913;-87
2022/01/16 04:34:36;;;;;;;;;;;;;;;1.73;53.29;100833.09;5027025;28;20356;-86
2022/01/16 04:37:02;;;;;;;;;;;;;;;1.59;53.42;100845.56;5026070;28;19924;-86
2022/01/16 04:39:33;;;;;;;;;;;;;;;1.67;53.31;100835.47;5022445;28;20391;-86
2022/01/16 04:44:42;;;;;;;;;;;;;;;1.48;53.40;100832.94;5006872;28;20016;-86
2022/01/16 04:47:07;;;;;;;;;;;;;;;1.40;53.98;100827.44;5017874;28;19956;-85
2022/01/16 04:49:33;;;;;;;;;;;;;;;1.67;53.44;100827.66;5019930;28;20314;-86
2022/01/16 04:51:58;;;;;;;;;;;;;;;1.77;53.52;100840.16;5005905;28;19996;-85
2022/01/16 04:54:25;;;;;;;;;;;;;;;1.58;53.76;100835.09;5003823;28;19952;-85
2022/01/16 04:56:50;;;;;;;;;;;;;;;1.61;53.92;100824.81;5013984;28;19913;-85
2022/01/16 04:59:16;;;;;;;;;;;;;;;1.57;53.93;100838.50;5015236;28;19928;-85
2022/01/16 05:01:41;;;;;;;;;;;;;;;1.56;54.49;100840.22;5039609;28;19937;-86
2022/01/16 05:04:06;;;;;;;;;;;;;;;1.71;54.15;100844.25;5025085;28;19975;-85
2022/01/16 05:06:32;;;;;;;;;;;;;;;1.68;54.11;100844.13;5023811;28;20000;-85
2022/01/16 05:08:57;;;;;;;;;;;;;;;1.55;54.09;100851.44;5028331;28;19987;-84
2022/01/16 05:11:26;;;;;;;;;;;;;;;1.63;54.35;100845.69;5029559;28;19913;-85
2022/01/16 05:16:37;;;;;;;;;;;;;;;1.38;54.93;100844.69;5022636;28;19913;-85
2022/01/16 05:19:06;;;;;;;;;;;;;;;1.14;55.74;100849.75;5011540;28;19917;-86
2022/01/16 05:21:32;;;;;;;;;;;;;;;0.84;55.88;100842.47;5009204;28;19913;-85
2022/01/16 05:23:57;;;;;;;;;;;;;;;0.49;57.09;100841.81;5006878;28;20311;-86
2022/01/16 05:26:27;;;;;;;;;;;;;;;0.53;56.70;100841.13;5008581;28;19967;-85
2022/01/16 05:28:52;;;;;;;;;;;;;;;0.52;56.76;100844.53;5008726;28;19921;-85
2022/01/16 05:31:18;;;;;;;;;;;;;;;0.64;57.02;100852.00;5007585;28;20027;-85
2022/01/16 05:33:43;;;;;;;;;;;;;;;0.68;57.01;100854.78;5027145;28;19913;-85
2022/01/16 05:36:08;;;;;;;;;;;;;;;0.63;57.10;100858.00;5015982;28;19995;-85
2022/01/16 05:38:34;;;;;;;;;;;;;;;0.77;57.73;100861.19;5019755;28;19917;-86
2022/01/16 05:40:59;;;;;;;;;;;;;;;0.88;57.46;100859.94;5027800;28;19991;-85
2022/01/16 05:43:25;;;;;;;;;;;;;;;0.95;56.88;100859.38;5028668;28;19967;-85
2022/01/16 05:45:50;;;;;;;;;;;;;;;0.93;56.90;100865.31;5028831;28;20372;-85
2022/01/16 05:48:15;;;;;;;;;;;;;;;1.03;56.13;100863.19;5020456;28;19928;-85
2022/01/16 05:50:40;;;;;;;;;;;;;;;1.08;56.09;100865.97;5009011;28;20392;-84
2022/01/16 05:53:06;;;;;;;;;;;;;;;0.97;56.52;100868.13;5028895;28;20015;-85
2022/01/16 05:55:36;;;;;;;;;;;;;;;0.85;56.85;100870.19;5028425;28;19913;-84
2022/01/16 05:58:02;;;;;;;;;;;;;;;0.81;57.04;100889.09;5022323;28;19917;-84
2022/01/16 06:00:27;;;;;;;;;;;;;;;0.89;56.83;100885.97;5009049;28;19964;-86
2022/01/16 06:02:52;;;;;;;;;;;;;;;0.96;56.21;100889.75;5008247;28;19964;-86
2022/01/16 06:05:18;;;;;;;;;;;;;;;1.15;56.14;100887.94;5007798;28;20398;-85
2022/01/16 06:07:52;;;;;;;;;;;;;;;1.21;56.30;100876.06;5010106;28;19924;-85
2022/01/16 06:10:17;;;;;;;;;;;;;;;1.19;56.76;100882.94;5014639;28;19964;-87
2022/01/16 06:12:43;;;;;;;;;;;;;;;1.14;57.04;100891.34;5028001;28;20014;-85
2022/01/16 06:15:08;;;;;;;;;;;;;;;1.28;56.57;100898.00;5027604;28;19935;-85
2022/01/16 06:17:34;;;;;;;;;;;;;;;1.29;56.18;100897.19;5020438;28;19917;-86
2022/01/16 06:19:59;;;;;;;;;;;;;;;1.40;55.59;100900.25;5006145;28;19953;-86
2022/01/16 06:22:24;;;;;;;;;;;;;;;1.39;55.81;100908.84;5007950;28;19913;-85
2022/01/16 06:24:50;;;;;;;;;;;;;;;1.57;55.46;100921.75;5007778;28;19914;-84
2022/01/16 06:27:15;;;;;;;;;;;;;;;1.58;55.69;100921.81;5008515;28;20071;-85
2022/01/16 06:29:40;;;;;;;;;;;;;;;1.72;55.15;100916.28;5008476;28;19920;-85
2022/01/16 06:32:06;;;;;;;;;;;;;;;1.70;55.34;100920.50;5007173;28;19913;-84
2022/01/16 06:34:31;;;;;;;;;;;;;;;1.73;55.82;100936.25;5021058;28;19917;-84
2022/01/16 06:36:58;;;;;;;;;;;;;;;1.82;55.54;100938.34;5008537;28;19952;-83
2022/01/16 06:39:23;;;;;;;;;;;;;;;1.85;55.63;100941.06;5006991;28;19917;-83
2022/01/16 06:41:49;;;;;;;;;;;;;;;2.01;55.22;100942.56;5007288;28;19914;-85
2022/01/16 06:44:14;;;;;;;;;;;;;;;2.06;54.27;100951.47;5037257;28;19968;-85
2022/01/16 06:46:40;;;;;;;;;;;;;;;2.15;53.94;100941.41;5006966;28;19949;-85
2022/01/16 06:49:05;;;;;;;;;;;;;;;2.10;54.94;100958.53;5005788;28;20359;-85
2022/01/16 06:51:30;;;;;;;;;;;;;;;2.04;54.46;100955.69;5007563;28;20430;-85
2022/01/16 06:53:57;;;;;;;;;;;;;;;2.19;53.89;100945.00;5008491;28;19919;-84
2022/01/16 06:56:24;;;;;;;;;;;;;;;2.46;53.52;100940.88;5018889;28;19919;-85
2022/01/16 06:58:50;;;;;;;;;;;;;;;2.60;53.51;100935.28;5019704;28;19916;-85
2022/01/16 07:01:16;;;;;;;;;;;;;;;2.76;53.63;100944.56;5015978;28;20355;-83
2022/01/16 07:03:41;;;;;;;;;;;;;;;2.89;52.41;100953.69;5015150;28;19913;-84
2022/01/16 07:06:06;;;;;;;;;;;;;;;3.07;51.60;100954.34;5012251;28;20048;-84
2022/01/16 07:08:32;;;;;;;;;;;;;;;3.27;51.47;100965.50;5022431;28;19924;-84
2022/01/16 07:10:58;;;;;;;;;;;;;;;3.44;50.35;100976.50;5007117;28;19921;-84
2022/01/16 07:13:24;;;;;;;;;;;;;;;3.08;49.87;100982.22;5017578;28;19917;-84
2022/01/16 07:15:50;;;;;;;;;;;;;;;3.34;50.65;100983.13;5026968;28;19968;-84
2022/01/16 07:18:15;;;;;;;;;;;;;;;3.55;50.26;100988.22;5025654;28;19916;-84
2022/01/16 07:20:43;;;;;;;;;;;;;;;3.61;49.88;100989.25;5016911;28;20390;-83
2022/01/16 07:23:09;;;;;;;;;;;;;;;3.65;48.60;100988.53;5015636;28;19983;-84
2022/01/16 07:25:34;;;;;;;;;;;;;;;3.53;49.41;100987.25;5007691;28;20671;-84
2022/01/16 07:27:59;;;;;;;;;;;;;;;3.66;49.27;100979.84;5017734;28;19924;-84
2022/01/16 07:30:25;;;;;;;;;;;;;;;3.69;48.85;100982.56;5024497;28;19917;-85
2022/01/16 07:32:50;;;;;;;;;;;;;;;3.77;49.08;100996.78;5025670;28;20002;-82
2022/01/16 07:35:15;;;;;;;;;;;;;;;3.62;49.39;100984.09;5026642;28;19917;-81
2022/01/16 07:37:40;;;;;;;;;;;;;;;3.57;49.94;100988.28;5026778;28;20339;-83
2022/01/16 07:40:09;;;;;;;;;;;;;;;3.74;50.17;100989.72;5026889;28;20019;-83
2022/01/16 07:42:34;;;;;;;;;;;;;;;3.57;49.81;100993.50;5026343;28;20012;-82
2022/01/16 07:44:59;;;;;;;;;;;;;;;3.65;50.26;100992.03;5027731;28;20011;-81
2022/01/16 07:47:25;;;;;;;;;;;;;;;4.13;49.60;100997.06;5012525;28;20399;-82
2022/01/16 07:49:50;;;;;;;;;;;;;;;4.17;50.55;100998.06;5041216;28;19913;-81
2022/01/16 07:52:15;;;;;;;;;;;;;;;4.18;49.83;100992.00;5024493;28;20023;-82
2022/01/16 07:54:41;;;;;;;;;;;;;;;4.50;50.22;100992.13;5026720;28;19913;-83
2022/01/16 07:57:06;;;;;;;;;;;;;;;4.70;50.12;100992.72;5026181;28;20406;-82
2022/01/16 07:59:31;;;;;;;;;;;;;;;4.72;50.24;100998.84;5026137;28;20403;-83
2022/01/16 08:01:57;;;;;;;;;;;;;;;4.69;48.85;101004.00;5026828;28;21377;-82
2022/01/16 08:04:22;;;;;;;;;;;;;;;4.76;48.90;101008.59;5025169;28;19917;-82
2022/01/16 08:06:47;;;;;;;;;;;;;;;4.35;50.62;101008.19;5026470;28;20365;-82
2022/01/16 08:09:13;;;;;;;;;;;;;;;4.72;49.48;100998.84;5027036;28;19909;-82
2022/01/16 08:11:38;;;;;;;;;;;;;;;4.53;51.08;100989.59;5026098;28;20350;-82
2022/01/16 08:14:03;;;;;;;;;;;;;;;4.59;50.14;100981.06;5024668;28;20042;-82
2022/01/16 08:16:29;;;;;;;;;;;;;;;4.32;50.51;100975.88;5025570;28;20326;-82
2022/01/16 08:18:54;;;;;;;;;;;;;;;4.32;50.45;100968.91;5024280;28;20008;-81
2022/01/16 08:21:19;;;;;;;;;;;;;;;4.73;51.14;100968.41;5041791;28;19917;-82
2022/01/16 08:23:45;;;;;;;;;;;;;;;4.75;49.92;100971.94;5025142;28;20661;-82
2022/01/16 08:26:10;;;;;;;;;;;;;;;4.84;50.42;100972.19;5026697;28;19913;-82
2022/01/16 08:28:35;;;;;;;;;;;;;;;4.79;50.16;100982.53;5026806;28;19917;-82
2022/01/16 08:31:01;;;;;;;;;;;;;;;4.63;49.87;100982.91;5026560;28;19940;-82
2022/01/16 08:33:26;;;;;;;;;;;;;;;4.60;50.25;100974.97;5026326;28;20004;-83
2022/01/16 08:35:51;;;;;;;;;;;;;;;4.55;50.38;100963.50;5026916;28;19945;-82
2022/01/16 08:38:17;;;;;;;;;;;;;;;4.79;51.40;100964.22;5008909;28;19917;-85
2022/01/16 08:40:42;;;;;;;;;;;;;;;5.28;50.57;100969.91;5006970;28;19980;-82
2022/01/16 08:43:09;;;;;;;;;;;;;;;5.01;48.96;100962.22;5011055;28;20405;-83
2022/01/16 08:45:35;;;;;;;;;;;;;;;4.93;48.01;100967.22;5025793;28;19909;-83
2022/01/16 08:48:00;;;;;;;;;;;;;;;5.10;49.08;100958.97;5026465;28;19940;-82
2022/01/16 08:50:26;;;;;;;;;;;;;;;5.36;47.92;100960.56;5025917;28;19997;-83
2022/01/16 08:52:51;;;;;;;;;;;;;;;5.09;47.69;100965.03;5026007;28;19963;-84
2022/01/16 08:55:16;;;;;;;;;;;;;;;5.60;50.38;100971.63;5026672;28;20498;-83
2022/01/16 08:57:42;;;;;;;;;;;;;;;5.61;49.12;100966.44;5026213;28;20364;-84
2022/01/16 09:00:08;;;;;;;;;;;;;;;5.44;47.73;100962.47;5025975;28;19920;-84
2022/01/16 09:02:33;;;;;;;;;;;;;;;5.67;47.79;100963.06;5025994;28;19919;-85
2022/01/16 09:04:59;;;;;;;;;;;;;;;5.69;48.54;100954.41;5026318;28;19996;-86
2022/01/16 09:07:24;;;;;;;;;;;;;;;5.88;46.86;100953.13;5026211;28;20391;-84
2022/01/16 09:09:49;;;;;;;;;;;;;;;5.83;46.57;100948.63;5024583;28;20399;-85
2022/01/16 09:12:15;;;;;;;;;;;;;;;5.45;46.47;100941.56;5026228;28;20775;-85
2022/01/16 09:14:40;;;;;;;;;;;;;;;5.40;46.04;100951.03;5026320;28;19956;-84
2022/01/16 09:17:05;;;;;;;;;;;;;;;5.42;47.37;100951.09;5025963;28;20040;-84
2022/01/16 09:19:31;;;;;;;;;;;;;;;5.43;46.41;100952.88;5026142;28;19913;-85
2022/01/16 09:21:56;;;;;;;;;;;;;;;5.32;46.12;100939.50;5025616;28;20360;-84
2022/01/16 09:24:22;;;;;;;;;;;;;;;5.47;46.43;100944.22;5025568;28;20004;-85
2022/01/16 09:26:48;;;;;;;;;;;;;;;5.09;46.99;100938.88;5026170;28;19919;-86
2022/01/16 09:29:13;;;;;;;;;;;;;;;5.33;46.09;100936.94;5013238;28;20778;-82
2022/01/16 09:31:38;;;;;;;;;;;;;;;5.72;47.36;100930.91;5010572;28;19913;-81
2022/01/16 09:34:04;;;;;;;;;;;;;;;5.83;45.22;100925.94;5037984;28;20422;-81
2022/01/16 09:36:29;;;;;;;;;;;;;;;6.02;46.76;100931.66;5008048;28;20735;-81
2022/01/16 09:38:55;;;;;;;;;;;;;;;6.11;44.60;100937.09;5010353;28;19964;-82
2022/01/16 09:41:20;;;;;;;;;;;;;;;6.06;44.17;100933.50;5004828;28;19920;-82
2022/01/16 09:43:45;;;;;;;;;;;;;;;6.03;45.17;100936.06;5005474;28;19917;-80
2022/01/16 09:46:11;;;;;;;;;;;;;;;5.97;45.14;100926.31;5033378;28;20791;-80
2022/01/16 09:48:36;;;;;;;;;;;;;;;6.37;46.27;100911.47;5024830;28;20003;-81
2022/01/16 09:51:02;;;;;;;;;;;;;;;6.62;43.86;100915.50;5025290;28;20008;-82
2022/01/16 09:53:27;;;;;;;;;;;;;;;6.79;45.44;100914.97;5026614;28;19913;-84
2022/01/16 09:55:53;;;;;;;;;;;;;;;6.58;43.13;100905.81;5030544;28;20003;-85
2022/01/16 09:58:19;;;;;;;;;;;;;;;6.45;42.51;100906.41;5029263;28;20330;-83
2022/01/16 10:00:45;;;;;;;;;;;;;;;6.09;43.48;100899.50;5026950;28;19913;-84
2022/01/16 10:03:30;;;;;;;;;;;;;;;6.00;45.47;100894.06;5025893;28;20280;-85
2022/01/16 10:06:06;;;;;;;;;;;;;;;6.26;43.49;100895.53;5020750;28;19919;-85
2022/01/16 10:08:31;;;;;;;;;;;;;;;6.48;44.69;100895.97;5020959;28;19917;-85
2022/01/16 10:10:58;;;;;;;;;;;;;;;6.74;44.13;100893.88;5009855;28;20730;-87
2022/01/16 10:13:38;;;;;;;;;;;;;;;6.93;43.32;100889.88;5009084;28;20348;-86
2022/01/16 10:16:04;;;;;;;;;;;;;;;7.08;42.03;100891.03;5026020;28;19917;-83
2022/01/16 10:18:37;;;;;;;;;;;;;;;6.78;42.94;100890.47;5026115;28;20382;-85
2022/01/16 10:21:02;;;;;;;;;;;;;;;6.83;41.63;100885.31;5025992;28;19952;-85
2022/01/16 10:23:28;;;;;;;;;;;;;;;6.80;41.06;100877.41;5012585;28;20493;-86
2022/01/16 10:25:53;;;;;;;;;;;;;;;6.99;40.85;100882.13;5018820;28;19916;-85
2022/01/16 10:28:23;;;;;;;;;;;;;;;6.98;42.27;100872.50;5026914;28;20067;-85
2022/01/16 10:30:50;;;;;;;;;;;;;;;6.59;43.08;100875.22;5015137;28;20030;-88
2022/01/16 10:33:17;;;;;;;;;;;;;;;6.90;42.49;100870.56;5008756;28;19924;-89
2022/01/16 10:35:43;;;;;;;;;;;;;;;7.35;42.60;100852.16;5008897;28;19970;-82
2022/01/16 10:38:16;;;;;;;;;;;;;;;7.31;42.89;100859.94;5018497;28;19941;-83
2022/01/16 10:40:44;;;;;;;;;;;;;;;7.13;41.86;100858.75;5028404;28;19917;-83
2022/01/16 10:43:16;;;;;;;;;;;;;;;6.90;42.01;100853.09;5028139;28;20835;-83
2022/01/16 10:45:43;;;;;;;;;;;;;;;7.22;42.58;100847.53;5022918;28;20440;-84
2022/01/16 10:48:09;;;;;;;;;;;;;;;7.17;42.21;100847.47;5016019;28;19924;-84
2022/01/16 10:50:43;;;;;;;;;;;;;;;7.07;41.45;100853.41;5027638;28;19913;-83
2022/01/16 10:53:08;;;;;;;;;;;;;;;7.37;43.21;100838.16;5027996;28;19920;-84
2022/01/16 10:55:38;;;;;;;;;;;;;;;7.07;42.46;100828.91;5027056;28;19921;-84
2022/01/16 10:58:05;;;;;;;;;;;;;;;7.39;41.83;100833.81;5023371;28;19920;-82
2022/01/16 11:00:30;;;;;;;;;;;;;;;7.69;42.78;100830.78;5019221;28;20710;-83
2022/01/16 11:02:58;;;;;;;;;;;;;;;7.65;39.96;100827.22;5027274;28;19913;-83
2022/01/16 11:05:26;;;;;;;;;;;;;;;7.80;40.43;100826.59;5013490;28;19952;-83
2022/01/16 11:08:02;;;;;;;;;;;;;;;7.66;41.36;100822.84;5009002;28;19920;-84
2022/01/16 11:10:36;;;;;;;;;;;;;;;7.70;41.04;100819.41;5008371;28;19917;-84
2022/01/16 11:13:15;;;;;;;;;;;;;;;7.71;41.09;100818.56;5016721;28;19970;-84
2022/01/16 11:15:41;;;;;;;;;;;;;;;7.71;39.86;100815.94;5026882;28;19916;-84
2022/01/16 11:18:08;;;;;;;;;;;;;;;7.44;40.60;100817.25;5028188;28;20022;-84
2022/01/16 11:20:36;;;;;;;;;;;;;;;7.57;39.66;100813.09;5025795;28;19917;-85
2022/01/16 11:26:03;;;;;;;;;;;;;;;7.97;40.48;100818.03;4977959;28;20652;-84
2022/01/16 11:28:29;;;;;;;;;;;;;;;7.97;39.22;100813.69;5025978;28;19913;-87
2022/01/16 11:30:56;;;;;;;;;;;;;;;8.09;38.88;100810.31;5024741;28;19924;-87
2022/01/16 11:33:22;;;;;;;;;;;;;;;7.88;39.31;100803.91;5025723;28;19996;-85
2022/01/16 11:35:50;;;;;;;;;;;;;;;7.78;41.09;100809.88;5026801;28;19933;-85
2022/01/16 11:38:18;;;;;;;;;;;;;;;7.93;39.49;100800.47;5026539;28;19917;-85
2022/01/16 11:40:48;;;;;;;;;;;;;;;7.91;39.47;100792.56;5014547;28;19979;-85
2022/01/16 11:43:16;;;;;;;;;;;;;;;7.95;39.97;100793.50;5007606;28;19979;-85
2022/01/16 11:45:45;;;;;;;;;;;;;;;7.98;38.77;100789.16;5007683;28;20640;-85
2022/01/16 11:48:11;;;;;;;;;;;;;;;8.01;39.09;100785.69;5007058;28;19913;-85
2022/01/16 11:50:36;;;;;;;;;;;;;;;7.92;40.75;100781.19;5021369;28;20381;-84
2022/01/16 11:53:01;;;;;;;;;;;;;;;8.04;42.29;100781.34;5026708;28;20413;-84
2022/01/16 11:55:34;;;;;;;;;;;;;;;8.17;42.58;100782.41;5027278;28;20328;-84
2022/01/16 11:58:00;;;;;;;;;;;;;;;7.92;41.02;100775.06;5023693;28;19917;-84
2022/01/16 12:00:40;;;;;;;;;;;;;;;7.91;40.93;100770.66;5007199;28;20031;-85
2022/01/16 12:03:26;;;;;;;;;;;;;;;8.14;42.62;100774.47;5007213;28;20027;-84
2022/01/16 12:05:55;;;;;;;;;;;;;;;8.31;41.52;100765.88;5005605;28;20694;-84
2022/01/16 12:08:32;;;;;;;;;;;;;;;8.22;41.50;100767.56;5012228;28;19917;-84
2022/01/16 12:10:58;;;;;;;;;;;;;;;8.31;41.12;100763.25;5025591;28;19917;-83
2022/01/16 12:13:42;;;;;;;;;;;;;;;8.09;41.37;100765.63;5026560;28;19913;-84
2022/01/16 12:16:30;;;;;;;;;;;;;;;8.13;41.24;100758.69;5017697;28;19920;-83
2022/01/16 12:19:15;;;;;;;;;;;;;;;7.97;41.84;100754.97;5016572;28;19917;-83
2022/01/16 12:21:51;;;;;;;;;;;;;;;8.45;41.71;100761.72;5026289;28;19913;-84
2022/01/16 12:24:31;;;;;;;;;;;;;;;8.39;42.55;100765.13;5026486;28;19995;-84
2022/01/16 12:27:35;;;;;;;;;;;;;;;8.37;42.42;100760.69;5026135;28;19905;-84
2022/01/16 12:30:19;;;;;;;;;;;;;;;8.44;41.97;100759.94;4983192;28;20072;-84
2022/01/16 12:32:55;;;;;;;;;;;;;;;8.45;40.84;100761.72;4983368;28;19976;-85
2022/01/16 12:35:38;;;;;;;;;;;;;;;8.49;42.27;100754.72;4999647;28;20291;-82
2022/01/16 12:38:05;;;;;;;;;;;;;;;8.49;37.88;100762.63;5024768;28;19913;-83
2022/01/16 12:40:31;;;;;;;;;;;;;;;8.31;37.73;100758.91;5015586;28;19925;-83
2022/01/16 12:42:56;;;;;;;;;;;;;;;8.20;38.12;100755.25;5024670;28;19928;-82
2022/01/16 12:45:22;;;;;;;;;;;;;;;8.20;38.30;100748.25;5021949;28;19920;-83
2022/01/16 12:47:47;;;;;;;;;;;;;;;8.16;38.24;100748.22;5024359;28;19913;-83
2022/01/16 12:50:13;;;;;;;;;;;;;;;7.82;38.99;100745.16;5024541;28;20260;-83
2022/01/16 12:52:46;;;;;;;;;;;;;;;8.01;38.87;100746.28;5006917;28;20410;-83
2022/01/16 12:55:12;;;;;;;;;;;;;;;8.07;39.50;100743.72;5012761;28;19963;-83
2022/01/16 12:57:37;;;;;;;;;;;;;;;7.83;39.96;100739.94;5006441;28;19944;-82
2022/01/16 13:00:12;;;;;;;;;;;;;;;8.10;39.13;100742.88;5006002;28;19918;-83
2022/01/16 13:02:38;;;;;;;;;;;;;;;8.12;39.20;100742.00;5023987;28;20521;-83
2022/01/16 13:05:04;;;;;;;;;;;;;;;8.15;39.64;100743.81;5018943;28;19920;-84
2022/01/16 13:07:29;;;;;;;;;;;;;;;8.13;39.77;100745.53;5040066;28;19917;-83
2022/01/16 13:09:54;;;;;;;;;;;;;;;7.61;38.72;100746.63;5026454;28;19909;-83
2022/01/16 13:12:21;;;;;;;;;;;;;;;7.71;38.57;100735.41;5024262;28;20378;-83
2022/01/16 13:14:46;;;;;;;;;;;;;;;7.95;38.31;100741.81;5013798;28;19983;-83
2022/01/16 13:17:12;;;;;;;;;;;;;;;8.05;38.57;100743.69;5006082;28;19913;-84
2022/01/16 13:19:40;;;;;;;;;;;;;;;8.16;37.70;100740.31;5006169;28;20044;-84
2022/01/16 13:22:11;;;;;;;;;;;;;;;8.15;38.39;100744.69;5012060;28;20395;-83
2022/01/16 13:24:37;;;;;;;;;;;;;;;8.25;37.99;100745.69;5009289;28;19924;-83
2022/01/16 13:27:13;;;;;;;;;;;;;;;8.29;37.29;100747.47;5025819;28;19912;-83
2022/01/16 13:29:40;;;;;;;;;;;;;;;8.15;37.37;100746.44;5027464;28;19926;-82
2022/01/16 13:32:06;;;;;;;;;;;;;;;8.09;39.42;100747.25;5020476;28;20346;-82
2022/01/16 13:34:35;;;;;;;;;;;;;;;8.06;37.58;100740.22;5024024;28;19971;-82
2022/01/16 13:37:01;;;;;;;;;;;;;;;7.98;38.84;100736.59;5016260;28;19917;-81
2022/01/16 13:39:32;;;;;;;;;;;;;;;8.07;36.90;100739.34;5025277;28;20387;-81
2022/01/16 13:42:18;;;;;;;;;;;;;;;8.03;37.29;100741.91;5023084;28;19909;-80